Time;durP1;ratioP1;P1;durP2;ratioP2;P2;SDS_P1;SDS_P2;PMS_P1;PMS_P2;Temp;Humidity;BMP_temperature;BMP_pressure;BME280_temperature;BME280_humidity;BME280_pressure;Samples;Min_cycle;Max_cycle;Signal;HPM_P1;HPM_P2
2022/09/12 00:00:10;;;;;;;13.43;9.85;;;14.70;99.90;;;;;;4985046;28;20043;-69
2022/09/12 00:02:36;;;;;;;16.55;9.90;;;14.70;99.90;;;;;;4969274;28;20053;-69
2022/09/12 00:05:02;;;;;;;13.57;9.70;;;14.70;99.90;;;;;;4989899;28;20046;-69
2022/09/12 00:07:28;;;;;;;22.67;10.60;;;14.70;99.90;;;;;;4986301;28;20046;-69
2022/09/12 00:09:55;;;;;;;10.68;9.20;;;14.70;99.90;;;;;;4969490;28;20109;-68
2022/09/12 00:12:20;;;;;;;13.27;11.05;;;14.70;99.90;;;;;;4987441;28;20069;-68
2022/09/12 00:14:46;;;;;;;12.48;10.63;;;14.70;99.90;;;;;;4989875;28;20046;-69
2022/09/12 00:17:11;;;;;;;15.13;10.60;;;14.60;99.90;;;;;;4982572;28;20050;-69
2022/09/12 00:19:37;;;;;;;13.45;11.30;;;14.60;99.90;;;;;;4983448;28;20045;-68
2022/09/12 00:22:03;;;;;;;13.45;11.65;;;14.60;99.90;;;;;;4981928;28;20684;-68
2022/09/12 00:24:28;;;;;;;13.35;11.95;;;14.60;99.90;;;;;;4970694;28;21524;-68
2022/09/12 00:26:54;;;;;;;20.60;13.35;;;14.60;99.90;;;;;;4986805;28;20383;-69
2022/09/12 00:29:21;;;;;;;14.55;12.85;;;14.70;99.90;;;;;;4971425;28;20410;-68
2022/09/12 00:31:47;;;;;;;16.73;14.07;;;14.60;99.90;;;;;;4986745;28;20801;-68
2022/09/12 00:34:13;;;;;;;15.10;13.30;;;14.50;99.90;;;;;;4986615;28;20734;-69
2022/09/12 00:36:39;;;;;;;17.55;15.68;;;14.50;99.90;;;;;;4986834;28;20058;-68
2022/09/12 00:39:05;;;;;;;18.27;16.05;;;14.50;99.90;;;;;;4972468;28;20038;-68
2022/09/12 00:41:37;;;;;;;20.90;18.80;;;14.50;99.90;;;;;;4989166;28;20038;-69
2022/09/12 00:44:23;;;;;;;21.75;19.42;;;14.50;99.90;;;;;;4988261;28;20042;-69
2022/09/12 00:47:04;;;;;;;30.70;25.58;;;14.50;99.90;;;;;;4983717;28;20503;-69
2022/09/12 00:49:36;;;;;;;35.58;31.80;;;14.50;99.90;;;;;;4972523;28;20503;-69
2022/09/12 00:52:09;;;;;;;38.35;33.83;;;14.40;99.90;;;;;;4986019;28;20038;-69
2022/09/12 00:54:41;;;;;;;49.97;40.97;;;14.40;99.90;;;;;;4980178;28;20093;-69
2022/09/12 00:57:09;;;;;;;55.58;46.67;;;14.40;99.90;;;;;;4987043;28;20402;-70
2022/09/12 00:59:43;;;;;;;56.28;48.10;;;14.40;99.90;;;;;;4985402;28;20046;-68
2022/09/12 01:02:09;;;;;;;90.55;74.50;;;14.40;99.90;;;;;;4970696;28;20038;-69
2022/09/12 01:04:37;;;;;;;88.65;76.65;;;14.40;99.90;;;;;;4987245;28;20030;-69
2022/09/12 01:07:05;;;;;;;97.63;79.75;;;14.40;99.90;;;;;;4983681;28;20122;-68
2022/09/12 01:09:31;;;;;;;95.53;79.40;;;14.30;99.90;;;;;;4987501;28;20043;-68
2022/09/12 01:11:57;;;;;;;101.88;83.10;;;14.40;99.90;;;;;;4979552;28;20449;-68
2022/09/12 01:14:23;;;;;;;95.03;78.70;;;14.30;99.90;;;;;;4988449;28;20509;-68
2022/09/12 01:16:50;;;;;;;87.63;71.68;;;14.30;99.90;;;;;;4966479;28;20497;-69
2022/09/12 01:19:34;;;;;;;71.30;59.53;;;14.30;99.90;;;;;;4987372;28;20053;-69
2022/09/12 01:22:41;;;;;;;66.93;56.00;;;14.30;99.90;;;;;;4987171;28;20046;-69
2022/09/12 01:25:11;;;;;;;54.33;47.00;;;14.30;99.90;;;;;;4984902;28;20060;-69
2022/09/12 01:28:15;;;;;;;44.03;37.85;;;14.30;99.90;;;;;;4986950;28;20042;-69
2022/09/12 01:31:03;;;;;;;37.58;33.63;;;14.30;99.90;;;;;;4946352;28;20501;-69
2022/09/12 01:33:54;;;;;;;34.35;30.50;;;14.30;99.90;;;;;;4985899;28;20047;-69
2022/09/12 01:36:23;;;;;;;35.50;27.13;;;14.20;99.90;;;;;;4982914;28;20043;-69
2022/09/12 01:39:03;;;;;;;27.13;24.30;;;14.20;99.90;;;;;;4989488;28;20072;-69
2022/09/12 01:42:24;;;;;;;28.30;24.88;;;14.20;99.90;;;;;;4980882;28;20034;-69
2022/09/12 01:45:28;;;;;;;24.50;21.13;;;14.20;99.90;;;;;;4885206;29;20141;-69
2022/09/12 01:48:18;;;;;;;21.02;18.83;;;14.10;99.90;;;;;;4968253;28;20050;-69
2022/09/12 01:51:02;;;;;;;20.00;17.95;;;14.10;99.90;;;;;;4988160;28;20038;-69
2022/09/12 01:54:03;;;;;;;21.75;16.95;;;14.10;99.90;;;;;;4978254;28;20148;-69
2022/09/12 01:56:32;;;;;;;19.17;17.17;;;14.10;99.90;;;;;;4977964;28;20448;-69
2022/09/12 01:59:33;;;;;;;19.77;16.52;;;14.10;99.90;;;;;;4985629;28;20104;-69
2022/09/12 02:02:06;;;;;;;19.65;17.45;;;14.10;99.90;;;;;;4935367;28;20466;-69
2022/09/12 02:04:38;;;;;;;19.25;17.25;;;14.10;99.90;;;;;;4965003;28;20062;-68
2022/09/12 02:07:30;;;;;;;18.90;16.67;;;14.00;99.90;;;;;;4976415;28;20092;-69
2022/09/12 02:10:06;;;;;;;20.90;17.90;;;14.00;99.90;;;;;;4982338;28;20980;-70
2022/09/12 02:12:40;;;;;;;20.77;18.58;;;14.00;99.90;;;;;;4990848;28;20034;-70
2022/09/12 02:15:08;;;;;;;25.25;22.65;;;14.00;99.90;;;;;;4989951;28;20050;-70
2022/09/12 02:17:42;;;;;;;26.70;23.50;;;14.00;99.90;;;;;;4991485;28;20062;-68
2022/09/12 02:20:16;;;;;;;34.60;28.38;;;13.90;99.90;;;;;;4989757;28;20068;-69
2022/09/12 02:22:44;;;;;;;39.15;34.40;;;13.90;99.90;;;;;;4963073;28;20058;-69
2022/09/12 02:25:13;;;;;;;45.80;39.55;;;13.90;99.90;;;;;;4984190;28;20053;-69
2022/09/12 02:28:00;;;;;;;52.00;44.03;;;13.90;99.90;;;;;;4968468;28;20047;-69
2022/09/12 02:30:31;;;;;;;50.38;41.70;;;13.80;99.90;;;;;;4985857;28;20562;-69
2022/09/12 02:33:05;;;;;;;48.55;42.28;;;13.80;99.90;;;;;;4991573;28;20307;-70
2022/09/12 02:35:47;;;;;;;51.63;43.75;;;13.80;99.90;;;;;;4983931;28;20082;-69
2022/09/12 02:38:26;;;;;;;52.80;45.55;;;13.80;99.90;;;;;;4971285;28;20837;-70
2022/09/12 02:40:53;;;;;;;52.17;44.53;;;13.80;99.90;;;;;;4984024;28;20574;-69
2022/09/12 02:43:18;;;;;;;57.13;46.17;;;13.80;99.90;;;;;;4988990;28;20038;-69
2022/09/12 02:45:44;;;;;;;53.78;46.58;;;13.80;99.90;;;;;;4990532;28;20505;-70
2022/09/12 02:48:19;;;;;;;55.75;47.63;;;13.80;99.90;;;;;;4986434;28;20058;-70
2022/09/12 02:50:48;;;;;;;50.10;42.38;;;13.80;99.90;;;;;;4989924;28;20411;-70
2022/09/12 02:53:14;;;;;;;48.55;41.08;;;13.80;99.90;;;;;;4966623;28;20047;-70
2022/09/12 02:55:41;;;;;;;43.33;38.25;;;13.70;99.90;;;;;;4986674;28;20053;-69
2022/09/12 02:58:15;;;;;;;47.20;38.57;;;13.70;99.90;;;;;;4988902;28;20086;-69
2022/09/12 03:01:04;;;;;;;40.20;33.33;;;13.70;99.90;;;;;;4985476;28;20067;-70
2022/09/12 03:03:57;;;;;;;37.40;32.75;;;13.70;99.90;;;;;;4989701;28;20038;-69
2022/09/12 03:06:38;;;;;;;38.92;31.67;;;13.70;99.90;;;;;;4991532;28;20139;-70
2022/09/12 03:09:19;;;;;;;34.33;30.10;;;13.60;99.90;;;;;;4987176;28;20158;-70
2022/09/12 03:12:20;;;;;;;29.95;26.67;;;13.70;99.90;;;;;;4994872;28;20121;-70
2022/09/12 03:14:49;;;;;;;33.22;27.85;;;13.60;99.90;;;;;;4946746;28;20093;-69
2022/09/12 03:17:37;;;;;;;28.10;25.08;;;13.60;99.90;;;;;;4991207;28;20050;-69
2022/09/12 03:20:12;;;;;;;27.23;23.40;;;13.60;99.90;;;;;;4974507;28;20133;-69
2022/09/12 03:22:55;;;;;;;24.65;21.95;;;13.60;99.90;;;;;;4995051;28;20104;-69
2022/09/12 03:25:40;;;;;;;26.00;22.20;;;13.60;99.90;;;;;;4989658;28;20050;-68
2022/09/12 03:28:12;;;;;;;29.70;23.20;;;13.60;99.90;;;;;;4971371;28;20509;-69
2022/09/12 03:30:47;;;;;;;25.77;22.83;;;13.60;99.90;;;;;;4988443;28;20058;-69
2022/09/12 03:33:18;;;;;;;27.58;22.83;;;13.60;99.90;;;;;;4988049;28;20053;-69
2022/09/12 03:35:45;;;;;;;29.05;22.63;;;13.50;99.90;;;;;;4950126;28;20042;-70
2022/09/12 03:38:11;;;;;;;25.67;21.63;;;13.50;99.90;;;;;;4970597;28;20049;-69
2022/09/12 03:40:37;;;;;;;25.05;21.20;;;13.50;99.90;;;;;;4991204;28;20117;-69
2022/09/12 03:43:04;;;;;;;23.05;20.52;;;13.50;99.90;;;;;;4989918;28;20042;-70
2022/09/12 03:45:29;;;;;;;25.60;21.42;;;13.50;99.90;;;;;;4958487;28;20042;-69
2022/09/12 03:47:55;;;;;;;23.40;20.85;;;13.60;99.90;;;;;;4988024;28;20479;-69
2022/09/12 03:50:21;;;;;;;26.67;21.20;;;13.50;99.90;;;;;;4985265;28;20035;-69
2022/09/12 03:52:46;;;;;;;25.27;20.35;;;13.50;99.90;;;;;;4989059;28;20521;-69
2022/09/12 03:55:12;;;;;;;27.75;21.15;;;13.50;99.90;;;;;;4986732;28;20042;-70
2022/09/12 03:57:38;;;;;;;27.92;22.20;;;13.50;99.90;;;;;;4973946;28;20122;-69
2022/09/12 04:00:06;;;;;;;23.10;19.05;;;13.40;99.90;;;;;;4988230;28;20038;-69
2022/09/12 04:02:32;;;;;;;27.30;21.50;;;13.40;99.90;;;;;;4986525;28;20059;-70
2022/09/12 04:04:57;;;;;;;26.05;21.70;;;13.40;99.90;;;;;;4989616;28;20042;-70
2022/09/12 04:07:23;;;;;;;22.35;19.52;;;13.40;99.90;;;;;;4987419;28;20431;-70
2022/09/12 04:09:49;;;;;;;25.08;20.20;;;13.40;99.90;;;;;;4987872;28;20039;-70
2022/09/12 04:12:15;;;;;;;24.38;20.33;;;13.50;99.90;;;;;;4986780;28;20057;-70
2022/09/12 04:14:40;;;;;;;25.85;20.83;;;13.40;99.90;;;;;;4986106;28;20100;-70
2022/09/12 04:17:06;;;;;;;26.60;21.80;;;13.40;99.90;;;;;;4987629;28;20043;-69
2022/09/12 04:19:32;;;;;;;28.00;21.95;;;13.50;99.90;;;;;;4988454;28;20042;-69
2022/09/12 04:21:58;;;;;;;32.53;22.58;;;13.50;99.90;;;;;;4972262;28;20414;-69
2022/09/12 04:24:23;;;;;;;28.63;22.02;;;13.40;99.90;;;;;;4967823;28;20042;-69
2022/09/12 04:26:49;;;;;;;31.23;23.55;;;13.40;99.90;;;;;;4986653;28;20038;-70
2022/09/12 04:29:15;;;;;;;25.60;21.73;;;13.40;99.90;;;;;;4968625;28;20084;-69
2022/09/12 04:31:41;;;;;;;26.98;21.05;;;13.40;99.90;;;;;;4985431;28;20418;-69
2022/09/12 04:34:07;;;;;;;27.73;21.27;;;13.50;99.90;;;;;;4987185;28;20061;-70
2022/09/12 04:36:33;;;;;;;33.15;23.35;;;13.50;99.90;;;;;;4970106;28;20066;-70
2022/09/12 04:39:00;;;;;;;30.83;22.35;;;13.50;99.90;;;;;;4937493;28;20157;-70
2022/09/12 04:41:29;;;;;;;30.65;22.55;;;13.50;99.90;;;;;;4987819;28;20064;-70
2022/09/12 04:44:00;;;;;;;31.20;22.50;;;13.50;99.90;;;;;;4985743;28;20054;-70
2022/09/12 04:46:26;;;;;;;28.33;21.63;;;13.50;99.90;;;;;;4971616;28;20043;-70
2022/09/12 04:48:52;;;;;;;31.85;24.88;;;13.50;99.90;;;;;;4985903;28;20042;-70
2022/09/12 04:51:33;;;;;;;31.45;24.88;;;13.60;99.90;;;;;;4969724;28;20482;-70
2022/09/12 04:54:01;;;;;;;32.13;23.55;;;13.60;99.90;;;;;;4970007;28;20117;-69
2022/09/12 04:56:28;;;;;;;30.27;23.33;;;13.70;99.90;;;;;;4946474;28;20046;-71
2022/09/12 04:58:57;;;;;;;35.67;24.70;;;13.70;99.90;;;;;;4986117;28;20046;-69
2022/09/12 05:01:22;;;;;;;;;;;13.70;99.90;;;;;;4986800;28;20172;-69
2022/09/12 05:03:49;;;;;;;31.25;23.90;;;13.80;99.90;;;;;;4965509;28;20019;-70
2022/09/12 05:06:23;;;;;;;36.28;25.48;;;13.80;99.90;;;;;;4968422;28;20406;-69
2022/09/12 05:08:50;;;;;;;35.05;25.08;;;13.90;99.90;;;;;;4986689;28;20081;-70
2022/09/12 05:11:21;;;;;;;35.17;24.50;;;13.90;99.90;;;;;;4965325;28;20069;-70
2022/09/12 05:13:47;;;;;;;33.85;24.40;;;14.00;99.90;;;;;;4987371;28;20557;-70
2022/09/12 05:16:15;;;;;;;31.20;24.20;;;14.00;99.90;;;;;;4969027;28;20494;-70
2022/09/12 05:18:41;;;;;;;32.75;24.83;;;14.10;99.90;;;;;;4963107;28;20495;-70
2022/09/12 05:21:09;;;;;;;30.33;23.50;;;14.10;99.90;;;;;;4986266;28;20053;-70
2022/09/12 05:23:35;;;;;;;31.48;23.25;;;14.20;99.90;;;;;;4983710;28;20042;-70
2022/09/12 05:26:02;;;;;;;29.48;22.75;;;14.20;99.90;;;;;;4978896;28;20035;-70
2022/09/12 05:28:38;;;;;;;30.40;23.58;;;14.20;99.90;;;;;;4979136;28;20046;-70
2022/09/12 05:31:14;;;;;;;31.58;23.80;;;14.30;99.90;;;;;;4984165;28;20046;-69
2022/09/12 05:33:42;;;;;;;31.33;24.42;;;14.30;99.90;;;;;;4964876;28;20050;-69
2022/09/12 05:36:13;;;;;;;30.65;23.83;;;14.40;99.90;;;;;;4985182;28;20475;-69
2022/09/12 05:38:39;;;;;;;30.45;23.85;;;14.40;99.90;;;;;;4990012;28;20470;-70
2022/09/12 05:41:11;;;;;;;29.90;22.92;;;14.40;99.90;;;;;;4980322;28;20046;-70
2022/09/12 05:43:38;;;;;;;28.83;23.08;;;14.50;99.90;;;;;;4994225;28;20054;-69
2022/09/12 05:46:09;;;;;;;28.48;22.70;;;14.50;99.90;;;;;;4993671;28;20076;-70
2022/09/12 05:48:39;;;;;;;30.38;24.00;;;14.50;99.90;;;;;;4994710;28;20069;-70
2022/09/12 05:51:08;;;;;;;29.52;23.25;;;14.60;99.90;;;;;;4977354;28;20113;-71
2022/09/12 05:53:35;;;;;;;32.17;24.40;;;14.60;99.90;;;;;;4959598;28;20094;-70
2022/09/12 05:56:05;;;;;;;30.08;22.60;;;14.60;99.90;;;;;;4988164;28;20050;-69
2022/09/12 05:58:32;;;;;;;30.20;22.45;;;14.60;99.90;;;;;;4988677;28;20041;-69
2022/09/12 06:01:02;;;;;;;30.75;23.95;;;14.70;99.90;;;;;;4991462;28;20043;-70
2022/09/12 06:03:27;;;;;;;32.72;24.63;;;14.80;99.90;;;;;;4994319;28;20518;-71
2022/09/12 06:05:53;;;;;;;35.05;23.27;;;14.70;99.90;;;;;;4971853;28;20047;-70
2022/09/12 06:08:19;;;;;;;31.40;23.63;;;14.80;99.90;;;;;;4994727;28;20100;-71
2022/09/12 06:10:44;;;;;;;31.27;22.95;;;14.80;99.90;;;;;;4975328;28;20042;-70
2022/09/12 06:13:10;;;;;;;33.15;23.23;;;14.80;99.90;;;;;;4992439;28;20038;-72
2022/09/12 06:15:36;;;;;;;33.70;24.25;;;14.90;99.90;;;;;;4990804;28;20038;-70
2022/09/12 06:18:02;;;;;;;33.67;23.52;;;14.90;99.90;;;;;;4994114;28;20058;-70
2022/09/12 06:20:27;;;;;;;31.05;24.00;;;14.90;99.90;;;;;;4995047;28;20045;-71
2022/09/12 06:22:53;;;;;;;31.17;23.95;;;15.00;99.90;;;;;;4984363;28;20050;-71
2022/09/12 06:25:20;;;;;;;36.60;25.20;;;15.10;99.90;;;;;;4976498;28;20038;-70
2022/09/12 06:27:46;;;;;;;39.78;24.70;;;15.10;99.90;;;;;;4993490;28;20054;-69
2022/09/12 06:30:12;;;;;;;36.25;25.98;;;15.10;99.90;;;;;;4981933;28;20045;-70
2022/09/12 06:32:38;;;;;;;38.92;25.80;;;15.20;99.90;;;;;;4983384;28;20483;-70
2022/09/12 06:35:04;;;;;;;36.88;26.60;;;15.20;99.90;;;;;;4990666;28;20138;-70
2022/09/12 06:37:31;;;;;;;35.15;25.58;;;15.20;99.90;;;;;;4994256;28;20085;-69
2022/09/12 06:39:57;;;;;;;37.22;27.13;;;15.20;99.90;;;;;;4980419;28;20121;-69
2022/09/12 06:42:23;;;;;;;40.83;28.00;;;15.30;99.90;;;;;;4989991;28;20074;-69
2022/09/12 06:44:49;;;;;;;38.03;26.42;;;15.30;99.90;;;;;;4985767;28;20140;-71
2022/09/12 06:47:15;;;;;;;39.28;28.15;;;15.30;99.90;;;;;;4984839;28;20046;-68
2022/09/12 06:49:40;;;;;;;41.13;28.13;;;15.40;99.90;;;;;;4979577;28;20042;-69
2022/09/12 06:52:06;;;;;;;42.67;29.27;;;15.40;99.90;;;;;;4988072;28;20043;-69
2022/09/12 06:54:31;;;;;;;43.30;30.52;;;15.40;99.90;;;;;;4987030;28;20042;-69
2022/09/12 06:56:57;;;;;;;44.22;29.67;;;15.40;99.90;;;;;;4974111;28;20062;-69
2022/09/12 06:59:23;;;;;;;40.75;28.95;;;15.40;99.90;;;;;;4992853;28;20041;-69
2022/09/12 07:01:49;;;;;;;43.38;29.85;;;15.40;99.90;;;;;;4995707;28;20038;-69
2022/09/12 07:04:15;;;;;;;45.95;31.05;;;15.50;99.90;;;;;;4976459;28;20061;-69
2022/09/12 07:06:43;;;;;;;51.05;30.58;;;15.50;99.90;;;;;;4993072;28;20069;-69
2022/09/12 07:09:10;;;;;;;;;;;15.60;99.90;;;;;;4993817;28;20045;-69
2022/09/12 07:11:37;;;;;;;56.28;30.33;;;15.60;99.90;;;;;;4973557;28;19972;-69
2022/09/12 07:14:05;;;;;;;44.88;30.42;;;15.60;99.90;;;;;;4995423;28;20042;-70
2022/09/12 07:16:31;;;;;;;50.45;31.88;;;15.70;99.90;;;;;;4994972;28;20053;-69
2022/09/12 07:19:01;;;;;;;51.17;32.28;;;15.70;99.90;;;;;;4996374;28;20051;-69
2022/09/12 07:21:28;;;;;;;49.22;32.53;;;15.80;99.90;;;;;;4998891;28;20049;-69
2022/09/12 07:23:56;;;;;;;49.50;32.65;;;15.80;99.90;;;;;;4993462;28;20046;-69
2022/09/12 07:26:22;;;;;;;;;;;15.90;99.90;;;;;;4990245;28;20114;-69
2022/09/12 07:28:53;;;;;;;47.60;30.63;;;15.90;99.90;;;;;;4995787;28;19952;-69
2022/09/12 07:31:21;;;;;;;47.88;31.75;;;16.00;99.90;;;;;;4994569;28;20092;-68
2022/09/12 07:33:47;;;;;;;49.35;32.60;;;16.10;99.90;;;;;;4966197;28;20135;-68
2022/09/12 07:36:15;;;;;;;46.80;32.58;;;16.20;99.90;;;;;;4981191;28;20054;-69
2022/09/12 07:38:42;;;;;;;47.10;31.30;;;16.20;99.90;;;;;;4990120;28;20137;-69
2022/09/12 07:41:18;;;;;;;49.88;34.28;;;16.30;99.90;;;;;;4974770;28;20058;-69
2022/09/12 07:43:44;;;;;;;50.97;31.80;;;16.40;99.90;;;;;;4993310;28;20407;-67
2022/09/12 07:46:10;;;;;;;50.33;33.38;;;16.50;99.90;;;;;;4990478;28;20380;-67
2022/09/12 07:48:37;;;;;;;48.92;33.42;;;16.40;99.90;;;;;;4973895;28;20054;-68
2022/09/12 07:51:06;;;;;;;51.33;32.97;;;16.50;99.90;;;;;;4991681;28;20038;-67
2022/09/12 07:53:39;;;;;;;56.28;34.15;;;16.50;99.90;;;;;;4988363;28;20084;-69
2022/09/12 07:56:09;;;;;;;55.15;33.53;;;16.60;99.90;;;;;;4984297;28;20046;-68
2022/09/12 07:58:36;;;;;;;52.60;32.63;;;16.60;99.90;;;;;;4978271;28;20043;-69
2022/09/12 08:01:03;;;;;;;51.42;33.53;;;16.60;99.90;;;;;;4975569;28;20051;-68
2022/09/12 08:03:29;;;;;;;53.75;34.20;;;16.70;99.90;;;;;;4968682;28;20047;-68
2022/09/12 08:06:01;;;;;;;51.88;35.03;;;16.80;99.90;;;;;;4991657;28;20399;-68
2022/09/12 08:08:29;;;;;;;55.83;35.00;;;16.70;99.90;;;;;;4989272;28;20506;-69
2022/09/12 08:11:01;;;;;;;49.53;33.35;;;16.80;99.90;;;;;;4989209;28;20042;-68
2022/09/12 08:13:28;;;;;;;56.30;34.55;;;16.90;99.90;;;;;;4989429;28;20092;-69
2022/09/12 08:15:59;;;;;;;49.20;31.52;;;16.90;99.90;;;;;;4958973;28;20073;-69
2022/09/12 08:18:26;;;;;;;46.58;33.22;;;16.90;99.90;;;;;;4991432;28;20503;-68
2022/09/12 08:20:57;;;;;;;51.45;33.53;;;17.00;99.90;;;;;;4993536;28;20057;-69
2022/09/12 08:23:23;;;;;;;47.10;32.17;;;17.00;99.90;;;;;;4975994;28;20050;-69
2022/09/12 08:25:50;;;;;;;50.42;32.72;;;17.00;99.90;;;;;;4986731;28;20046;-68
2022/09/12 08:28:15;;;;;;;48.80;31.20;;;17.00;99.90;;;;;;4983818;28;20078;-68
2022/09/12 08:30:41;;;;;;;46.15;31.48;;;17.10;99.90;;;;;;4971706;28;20153;-68
2022/09/12 08:33:07;;;;;;;46.80;32.13;;;17.10;99.90;;;;;;4988440;28;20031;-69
2022/09/12 08:35:32;;;;;;;47.13;31.42;;;17.10;99.90;;;;;;4990193;28;20173;-70
2022/09/12 08:37:58;;;;;;;47.45;30.80;;;17.30;99.90;;;;;;4990642;28;20137;-69
2022/09/12 08:40:24;;;;;;;47.45;32.10;;;17.30;99.90;;;;;;4983679;28;20054;-69
2022/09/12 08:43:00;;;;;;;48.30;31.20;;;17.30;99.90;;;;;;4986222;28;20193;-69
2022/09/12 08:45:35;;;;;;;47.72;31.35;;;17.50;99.90;;;;;;4983296;28;20064;-69
2022/09/12 08:48:03;;;;;;;45.33;31.85;;;17.60;99.90;;;;;;4991391;28;20050;-69
2022/09/12 08:50:29;;;;;;;;;;;17.70;99.90;;;;;;4991115;28;20351;-68
2022/09/12 08:53:20;;;;;;;41.83;28.98;;;17.80;99.90;;;;;;4989980;28;19921;-70
2022/09/12 08:55:57;;;;;;;40.25;27.95;;;17.90;99.90;;;;;;4954005;28;20058;-68
2022/09/12 08:58:26;;;;;;;41.08;28.13;;;18.00;99.90;;;;;;4975944;28;20056;-69
2022/09/12 09:01:00;;;;;;;44.10;29.08;;;18.00;99.90;;;;;;4970670;28;20074;-69
2022/09/12 09:03:57;;;;;;;45.05;28.65;;;18.10;99.90;;;;;;4978373;28;20057;-69
2022/09/12 09:06:55;;;;;;;40.83;27.27;;;18.10;99.90;;;;;;4968021;28;20047;-69
2022/09/12 09:09:48;;;;;;;42.42;28.08;;;18.20;99.90;;;;;;4988126;28;20042;-69
2022/09/12 09:12:39;;;;;;;49.35;27.75;;;18.30;99.90;;;;;;4972057;28;20133;-69
2022/09/12 09:15:40;;;;;;;39.60;27.30;;;18.40;99.90;;;;;;4972422;28;20499;-70
2022/09/12 09:18:09;;;;;;;40.22;27.02;;;18.40;99.90;;;;;;4988824;28;20396;-69
2022/09/12 09:20:43;;;;;;;41.63;28.90;;;18.50;99.90;;;;;;4986133;28;20050;-69
2022/09/12 09:23:18;;;;;;;47.55;27.88;;;18.60;99.90;;;;;;4979693;28;20057;-68
2022/09/12 09:26:07;;;;;;;42.20;28.25;;;18.70;99.90;;;;;;4988803;28;20039;-68
2022/09/12 09:28:36;;;;;;;;;;;18.80;99.90;;;;;;4971973;28;20047;-68
2022/09/12 09:31:02;;;;;;;40.75;27.00;;;19.00;99.90;;;;;;4974850;28;19922;-68
2022/09/12 09:33:33;;;;;;;39.83;25.85;;;19.10;99.90;;;;;;4982228;28;20058;-69
2022/09/12 09:36:21;;;;;;;42.20;26.10;;;19.30;99.90;;;;;;4957593;28;20050;-69
2022/09/12 09:39:31;;;;;;;39.78;26.25;;;19.40;99.90;;;;;;4973026;28;20082;-69
2022/09/12 09:42:14;;;;;;;42.40;24.67;;;19.50;99.90;;;;;;4911469;29;20103;-69
2022/09/12 09:44:40;;;;;;;61.83;26.95;;;19.80;99.90;;;;;;4981883;28;20047;-69
2022/09/12 09:47:08;;;;;;;43.15;23.95;;;20.00;99.90;;;;;;4955348;28;20121;-69
2022/09/12 09:49:35;;;;;;;39.50;24.27;;;20.30;99.90;;;;;;4991132;28;20100;-69
2022/09/12 09:52:04;;;;;;;35.20;23.52;;;20.60;99.90;;;;;;4971513;28;20082;-70
2022/09/12 09:54:46;;;;;;;34.30;23.92;;;21.00;99.90;;;;;;4985297;28;20049;-70
2022/09/12 09:57:33;;;;;;;36.88;23.10;;;21.30;99.90;;;;;;4974445;28;20081;-68
2022/09/12 10:00:25;;;;;;;32.55;22.15;;;21.50;99.90;;;;;;4988785;28;20133;-68
2022/09/12 10:03:11;;;;;;;32.10;22.30;;;21.70;99.90;;;;;;4971452;28;20043;-68
2022/09/12 10:05:50;;;;;;;32.85;23.20;;;22.00;99.90;;;;;;4990250;28;20410;-68
2022/09/12 10:08:42;;;;;;;34.58;22.77;;;22.20;99.90;;;;;;4984422;28;20375;-67
2022/09/12 10:11:21;;;;;;;34.70;23.05;;;22.40;99.90;;;;;;4985811;28;20100;-70
2022/09/12 10:18:54;;;;;;;37.45;23.50;;;23.10;99.90;;;;;;4986529;28;20066;-65
2022/09/12 10:21:38;;;;;;;30.63;21.92;;;23.40;99.90;;;;;;4977829;28;20039;-66
2022/09/12 10:24:25;;;;;;;33.85;22.38;;;23.70;99.90;;;;;;4986451;28;20036;-67
2022/09/12 10:26:57;;;;;;;33.90;22.70;;;23.70;99.90;;;;;;4989538;28;20082;-65
2022/09/12 10:29:30;;;;;;;27.63;20.85;;;23.70;99.90;;;;;;4971010;28;20120;-66
2022/09/12 10:32:03;;;;;;;30.05;21.02;;;23.80;99.90;;;;;;4976556;28;20578;-67
2022/09/12 10:34:38;;;;;;;31.77;21.80;;;23.80;99.90;;;;;;4970116;28;20050;-67
2022/09/12 10:37:15;;;;;;;31.67;21.27;;;24.00;99.90;;;;;;4991411;28;20038;-64
2022/09/12 10:39:53;;;;;;;29.58;19.75;;;24.30;99.90;;;;;;4981723;28;20074;-67
2022/09/12 10:42:44;;;;;;;28.95;20.08;;;24.60;99.90;;;;;;4988325;28;20050;-67
2022/09/12 10:45:34;;;;;;;26.27;17.52;;;24.70;99.90;;;;;;4972010;28;20054;-66
2022/09/12 10:48:03;;;;;;;24.38;17.25;;;25.10;99.90;;;;;;4994162;28;20043;-66
2022/09/12 10:50:39;;;;;;;24.38;17.80;;;25.40;99.90;;;;;;4996227;28;20570;-65
2022/09/12 10:53:22;;;;;;;22.52;16.58;;;25.60;99.40;;;;;;5007097;28;20065;-65
2022/09/12 10:56:11;;;;;;;28.77;18.98;;;25.60;96.80;;;;;;4998167;28;20054;-66
2022/09/12 10:58:55;;;;;;;24.63;15.43;;;25.80;97.30;;;;;;4998898;28;20061;-64
2022/09/12 11:01:35;;;;;;;20.25;12.65;;;25.90;97.90;;;;;;4993324;28;20125;-64
2022/09/12 11:04:13;;;;;;;22.02;13.80;;;26.20;96.20;;;;;;4994155;28;20061;-65
2022/09/12 11:06:52;;;;;;;19.15;13.20;;;26.30;95.60;;;;;;4995464;28;20391;-66
2022/09/12 11:09:37;;;;;;;23.13;14.95;;;26.50;95.90;;;;;;4981932;28;20050;-65
2022/09/12 11:12:06;;;;;;;21.30;14.15;;;26.90;95.60;;;;;;4988219;28;20399;-65
2022/09/12 11:14:43;;;;;;;26.00;17.48;;;27.10;95.20;;;;;;4980915;28;20387;-65
2022/09/12 11:17:27;;;;;;;22.17;15.93;;;27.20;93.90;;;;;;4987366;28;20142;-65
2022/09/12 11:20:14;;;;;;;24.52;14.98;;;27.40;93.90;;;;;;4973378;28;20069;-65
2022/09/12 11:26:29;;;;;;;23.90;16.60;;;27.50;92.00;;;;;;4970631;28;20029;-65
2022/09/12 11:29:16;;;;;;;25.63;17.77;;;27.50;92.60;;;;;;4969040;28;20056;-66
2022/09/12 11:32:25;;;;;;;24.25;17.35;;;27.60;92.20;;;;;;4974486;28;20175;-66
2022/09/12 11:34:54;;;;;;;19.60;13.70;;;27.70;91.20;;;;;;4954504;28;20047;-66
2022/09/12 11:37:40;;;;;;;21.20;13.18;;;27.50;90.60;;;;;;4963750;28;20061;-66
2022/09/12 11:40:21;;;;;;;18.38;12.00;;;27.50;91.10;;;;;;4972377;28;20059;-66
2022/09/12 11:42:52;;;;;;;17.25;12.05;;;27.50;89.30;;;;;;4971021;28;20051;-65
2022/09/12 11:45:38;;;;;;;17.05;12.35;;;27.40;90.50;;;;;;4972888;28;20039;-66
2022/09/12 11:48:10;;;;;;;17.42;11.25;;;27.40;87.60;;;;;;4973886;28;20487;-66
2022/09/12 11:50:36;;;;;;;14.95;10.15;;;27.10;90.30;;;;;;4966554;28;20495;-66
2022/09/12 11:53:18;;;;;;;16.98;10.93;;;27.10;90.50;;;;;;4975318;28;20050;-65
2022/09/12 11:56:17;;;;;;;16.48;10.88;;;27.10;88.20;;;;;;4973062;28;20126;-66
2022/09/12 11:58:49;;;;;;;16.00;9.70;;;27.10;87.50;;;;;;4963001;28;20061;-68
2022/09/12 12:01:20;;;;;;;19.67;9.70;;;27.20;89.40;;;;;;4969405;28;20039;-66
2022/09/12 12:03:47;;;;;;;11.13;6.22;;;27.20;89.80;;;;;;4974157;28;20507;-67
2022/09/12 12:06:28;;;;;;;;;;;27.20;88.60;;;;;;4975857;28;20122;-66
2022/09/12 12:08:54;;;;;;;9.30;6.72;;;27.30;87.50;;;;;;4971575;28;20043;-66
2022/09/12 12:11:49;;;;;;;11.85;6.65;;;27.40;88.40;;;;;;4972318;28;20048;-69
2022/09/12 12:14:23;;;;;;;11.10;7.53;;;27.30;85.10;;;;;;4970701;28;20138;-64
2022/09/12 12:16:49;;;;;;;12.27;8.20;;;27.00;84.60;;;;;;4966373;28;20427;-66
2022/09/12 12:19:16;;;;;;;14.35;7.72;;;26.70;86.30;;;;;;4971030;28;20038;-65
2022/09/12 12:21:44;;;;;;;10.77;7.25;;;26.40;86.50;;;;;;4969730;28;20043;-66
2022/09/12 12:24:18;;;;;;;10.95;7.53;;;26.30;87.60;;;;;;4964162;28;20061;-66
2022/09/12 12:26:56;;;;;;;11.00;7.10;;;26.20;89.20;;;;;;4974608;28;20042;-65
2022/09/12 12:29:22;;;;;;;12.38;8.05;;;26.60;89.20;;;;;;4970558;28;20074;-66
2022/09/12 12:32:00;;;;;;;9.05;6.72;;;26.90;87.50;;;;;;4962222;28;20412;-66
2022/09/12 12:34:33;;;;;;;10.27;6.00;;;27.10;86.30;;;;;;4969525;28;20423;-66
2022/09/12 12:37:24;;;;;;;9.27;6.25;;;27.20;85.40;;;;;;4977449;28;20074;-66
2022/09/12 12:39:51;;;;;;;12.32;7.35;;;27.10;85.40;;;;;;4974086;28;20054;-67
2022/09/12 12:42:43;;;;;;;;;;;27.00;85.80;;;;;;4968268;28;20078;-67
2022/09/12 12:45:29;;;;;;;8.18;5.53;;;27.00;84.40;;;;;;4954356;28;19992;-68
2022/09/12 12:48:16;;;;;;;8.75;5.65;;;27.00;85.30;;;;;;4934394;28;20062;-67
2022/09/12 12:50:42;;;;;;;9.73;6.43;;;26.90;85.00;;;;;;4968578;28;20481;-67
2022/09/12 12:53:26;;;;;;;11.60;6.07;;;27.10;85.20;;;;;;4970983;28;20130;-68
2022/09/12 12:55:54;;;;;;;12.43;6.22;;;27.20;83.20;;;;;;4971314;28;20047;-67
2022/09/12 12:58:37;;;;;;;8.57;5.97;;;26.90;83.80;;;;;;4959544;28;20101;-67
2022/09/12 13:01:09;;;;;;;6.88;4.22;;;26.60;84.50;;;;;;4960755;28;20042;-67
2022/09/12 13:03:36;;;;;;;6.82;4.57;;;26.40;84.70;;;;;;4970126;28;20042;-66
2022/09/12 13:06:06;;;;;;;7.40;4.72;;;26.30;84.00;;;;;;4973830;28;20042;-67
2022/09/12 13:08:37;;;;;;;16.60;4.70;;;26.20;82.70;;;;;;4968106;28;20065;-64